createdAt,value
2018-01-06T00:01:04.576Z,15.57
2018-01-06T00:03:32.399Z,17.40
2018-01-06T00:05:59.853Z,17.97
2018-01-06T00:08:27.554Z,18.43
2018-01-06T00:10:55.537Z,11.00
2018-01-06T00:13:23.248Z,16.57
2018-01-06T00:15:51.171Z,11.73
2018-01-06T00:18:18.841Z,9.37
2018-01-06T00:20:46.644Z,9.37
2018-01-06T00:23:14.777Z,12.23
2018-01-06T00:25:42.424Z,13.93
2018-01-06T00:28:10.125Z,14.73
2018-01-06T00:30:38.080Z,17.83
2018-01-06T00:33:05.553Z,10.97
2018-01-06T00:35:33.047Z,14.60
2018-01-06T00:38:00.781Z,13.07
2018-01-06T00:40:28.248Z,11.77
2018-01-06T00:42:55.711Z,13.73
2018-01-06T00:45:23.732Z,21.03
2018-01-06T00:47:52.014Z,13.50
2018-01-06T00:50:19.635Z,10.70
2018-01-06T00:52:47.762Z,12.47
2018-01-06T00:55:15.435Z,20.53
2018-01-06T00:57:43.211Z,17.20
2018-01-06T01:00:11.278Z,14.13
2018-01-06T01:02:38.738Z,32.33
2018-01-06T01:05:08.454Z,14.63
2018-01-06T01:07:36.446Z,16.40
2018-01-06T01:10:03.929Z,20.87
2018-01-06T01:12:31.408Z,20.07
2018-01-06T01:14:59.768Z,19.70
2018-01-06T01:17:27.270Z,18.90
2018-01-06T01:19:54.739Z,17.30
2018-01-06T01:22:22.448Z,41.33
2018-01-06T01:24:49.918Z,16.60
2018-01-06T01:27:17.367Z,18.97
2018-01-06T01:29:45.384Z,20.87
2018-01-06T01:32:13.425Z,16.70
2018-01-06T01:34:40.877Z,14.03
2018-01-06T01:37:09.003Z,15.23
2018-01-06T01:39:37.151Z,19.50
2018-01-06T01:42:04.611Z,19.30
2018-01-06T01:44:32.306Z,16.23
2018-01-06T01:47:02.531Z,19.47
2018-01-06T01:49:30.000Z,15.73
2018-01-06T01:51:57.456Z,18.23
2018-01-06T01:54:25.212Z,15.37
2018-01-06T01:56:52.670Z,17.77
2018-01-06T01:59:20.118Z,17.50
2018-01-06T02:01:47.753Z,13.70
2018-01-06T02:04:15.210Z,20.97
2018-01-06T02:06:42.674Z,16.40
2018-01-06T02:09:10.598Z,14.30
2018-01-06T02:11:38.060Z,13.20
2018-01-06T02:14:05.521Z,19.33
2018-01-06T02:16:33.588Z,14.57
2018-01-06T02:19:01.051Z,13.73
2018-01-06T02:21:28.502Z,18.20
2018-01-06T02:23:56.585Z,18.73
2018-01-06T02:26:24.041Z,13.60
2018-01-06T02:28:51.530Z,14.90
2018-01-06T02:31:19.575Z,19.83
2018-01-06T02:33:47.040Z,14.87
2018-01-06T02:36:14.508Z,14.43
2018-01-06T02:38:42.573Z,15.43
2018-01-06T02:41:10.030Z,17.93
2018-01-06T02:43:37.492Z,21.60
2018-01-06T02:46:05.262Z,28.70
2018-01-06T02:48:32.717Z,13.17
2018-01-06T02:51:00.235Z,15.53
2018-01-06T02:53:27.949Z,16.90
2018-01-06T02:55:55.409Z,18.10
2018-01-06T02:58:22.874Z,14.73
2018-01-06T03:00:50.629Z,30.03
2018-01-06T03:03:18.083Z,26.40
2018-01-06T03:05:45.538Z,14.40
2018-01-06T03:08:13.324Z,20.17
2018-01-06T03:10:40.785Z,14.10
2018-01-06T03:13:08.252Z,14.47
2018-01-06T03:15:35.988Z,14.70
2018-01-06T03:18:03.441Z,20.30
2018-01-06T03:20:30.908Z,17.10
2018-01-06T03:22:59.302Z,22.37
2018-01-06T03:25:26.770Z,18.67
2018-01-06T03:27:54.228Z,22.07
2018-01-06T03:30:22.007Z,27.40
2018-01-06T03:32:49.470Z,17.80
2018-01-06T03:35:16.931Z,23.93
2018-01-06T03:37:44.685Z,28.47
2018-01-06T03:40:12.144Z,30.93
2018-01-06T03:42:39.598Z,31.50
2018-01-06T03:45:07.373Z,18.53
2018-01-06T03:47:34.829Z,28.80
2018-01-06T03:50:02.293Z,29.77
2018-01-06T03:52:30.062Z,22.53
2018-01-06T03:54:58.910Z,34.53
2018-01-06T03:57:26.373Z,22.70
2018-01-06T03:59:54.281Z,22.63
2018-01-06T04:02:21.740Z,27.93
2018-01-06T04:04:49.188Z,28.37
2018-01-06T04:07:17.281Z,26.97
2018-01-06T04:09:44.741Z,29.33
2018-01-06T04:12:12.200Z,22.73
2018-01-06T04:14:39.966Z,26.20
2018-01-06T04:17:07.425Z,32.83
2018-01-06T04:19:34.886Z,28.37
2018-01-06T04:22:02.673Z,24.27
2018-01-06T04:24:30.135Z,29.50
2018-01-06T04:26:57.588Z,22.37
2018-01-06T04:29:25.327Z,25.70
2018-01-06T04:31:52.784Z,28.17
2018-01-06T04:34:20.235Z,22.10
2018-01-06T04:36:47.953Z,30.37
2018-01-06T04:39:15.405Z,21.67
2018-01-06T04:41:42.858Z,21.00
2018-01-06T04:44:10.662Z,20.30
2018-01-06T04:46:38.118Z,27.07
2018-01-06T04:49:05.571Z,25.60
2018-01-06T04:51:34.017Z,25.03
2018-01-06T04:54:01.476Z,25.23
2018-01-06T04:56:28.932Z,20.67
2018-01-06T04:58:56.702Z,22.60
2018-01-06T05:01:24.165Z,21.20
2018-01-06T05:03:51.624Z,23.07
2018-01-06T05:06:19.690Z,18.90
2018-01-06T05:08:47.161Z,21.47
2018-01-06T05:11:14.625Z,29.50
2018-01-06T05:13:42.441Z,18.73
2018-01-06T05:16:09.887Z,33.60
2018-01-06T05:18:37.344Z,18.57
2018-01-06T05:21:05.068Z,19.90
2018-01-06T05:23:32.525Z,22.63
2018-01-06T05:25:59.989Z,20.63
2018-01-06T05:28:27.673Z,26.53
2018-01-06T05:30:55.128Z,21.50
2018-01-06T05:33:22.584Z,19.77
2018-01-06T05:35:50.434Z,26.53
2018-01-06T05:38:17.888Z,28.73
2018-01-06T05:40:45.338Z,21.43
2018-01-06T05:43:13.142Z,21.93
2018-01-06T05:45:40.601Z,23.97
2018-01-06T05:48:08.063Z,25.53
2018-01-06T05:50:35.807Z,33.53
2018-01-06T05:53:03.979Z,32.40
2018-01-06T05:55:31.443Z,34.63
2018-01-06T05:57:59.421Z,27.07
2018-01-06T06:00:26.887Z,29.20
2018-01-06T06:02:54.350Z,27.50
2018-01-06T06:05:22.112Z,50.53
2018-01-06T06:07:49.571Z,30.90
2018-01-06T06:10:17.034Z,33.70
2018-01-06T06:12:44.921Z,44.27
2018-01-06T06:15:12.376Z,49.10
2018-01-06T06:17:39.837Z,43.87
2018-01-06T06:20:08.421Z,56.77
2018-01-06T06:22:35.879Z,44.00
2018-01-06T06:25:03.338Z,37.60
2018-01-06T06:27:30.973Z,37.47
2018-01-06T06:29:58.425Z,36.97
2018-01-06T06:32:25.869Z,33.70
2018-01-06T06:34:53.541Z,45.73
2018-01-06T06:37:20.997Z,31.90
2018-01-06T06:39:48.444Z,35.10
2018-01-06T06:42:16.220Z,30.23
2018-01-06T06:44:43.699Z,29.20
2018-01-06T06:47:11.159Z,31.83
2018-01-06T06:49:39.158Z,36.30
2018-01-06T06:52:06.615Z,44.40
2018-01-06T06:54:34.501Z,37.23
2018-01-06T06:57:02.768Z,50.40
2018-01-06T06:59:30.225Z,50.53
2018-01-06T07:01:57.677Z,49.33
2018-01-06T07:04:25.449Z,43.73
2018-01-06T07:06:52.898Z,68.03
2018-01-06T07:09:20.341Z,52.77
2018-01-06T07:11:48.165Z,43.93
2018-01-06T07:14:15.624Z,49.43
2018-01-06T07:16:43.086Z,47.23
2018-01-06T07:19:10.830Z,44.83
2018-01-06T07:21:38.289Z,53.03
2018-01-06T07:24:05.773Z,53.50
2018-01-06T07:26:33.816Z,47.07
2018-01-06T07:29:01.268Z,60.10
2018-01-06T07:31:28.717Z,46.30
2018-01-06T07:33:56.502Z,56.50
2018-01-06T07:36:23.953Z,74.80
2018-01-06T07:38:51.413Z,62.50
2018-01-06T07:41:19.226Z,54.97
2018-01-06T07:43:46.681Z,61.13
2018-01-06T07:46:14.136Z,51.53
2018-01-06T07:48:41.925Z,64.53
2018-01-06T07:51:09.349Z,85.00
2018-01-06T07:53:36.813Z,54.23
2018-01-06T07:56:05.178Z,74.50
2018-01-06T07:58:32.644Z,62.07
2018-01-06T08:01:00.114Z,63.93
2018-01-06T08:03:28.183Z,59.47
2018-01-06T08:05:55.639Z,51.93
2018-01-06T08:08:23.181Z,66.10
2018-01-06T08:10:51.179Z,68.77
2018-01-06T08:13:18.637Z,58.13
2018-01-06T08:15:46.091Z,58.80
2018-01-06T08:18:13.853Z,66.23
2018-01-06T08:20:41.306Z,65.07
2018-01-06T08:23:08.782Z,65.27
2018-01-06T08:25:36.552Z,64.93
2018-01-06T08:28:04.018Z,68.47
2018-01-06T08:30:31.480Z,81.80
2018-01-06T08:32:59.415Z,68.43
2018-01-06T08:35:26.876Z,68.83
2018-01-06T08:37:54.331Z,56.50
2018-01-06T08:40:22.239Z,61.43
2018-01-06T08:42:49.758Z,65.30
2018-01-06T08:45:17.208Z,75.13
2018-01-06T08:47:45.224Z,61.33
2018-01-06T08:50:12.697Z,57.13
2018-01-06T08:52:40.159Z,54.63
2018-01-06T08:55:07.886Z,41.97
2018-01-06T08:57:38.805Z,41.13
2018-01-06T09:00:06.260Z,42.77
2018-01-06T09:02:33.981Z,57.43
2018-01-06T09:05:01.450Z,46.57
2018-01-06T09:07:28.909Z,34.10
2018-01-06T09:09:56.660Z,32.77
2018-01-06T09:12:24.136Z,43.30
2018-01-06T09:14:51.593Z,29.53
2018-01-06T09:17:19.346Z,26.90
2018-01-06T09:19:46.840Z,22.83
2018-01-06T09:22:14.308Z,19.00
2018-01-06T09:24:42.040Z,22.53
2018-01-06T09:27:09.494Z,20.57
2018-01-06T09:29:36.948Z,33.33
2018-01-06T09:32:04.721Z,24.97
2018-01-06T09:34:32.189Z,24.30
2018-01-06T09:36:59.658Z,24.50
2018-01-06T09:39:27.400Z,23.93
2018-01-06T09:41:54.860Z,21.07
2018-01-06T09:44:22.318Z,21.37
2018-01-06T09:46:50.098Z,22.13
2018-01-06T09:49:17.568Z,20.93
2018-01-06T09:51:45.030Z,21.00
2018-01-06T09:54:12.785Z,25.03
2018-01-06T09:56:40.262Z,24.47
2018-01-06T09:59:08.080Z,26.13
2018-01-06T10:01:36.089Z,19.43
2018-01-06T10:04:03.545Z,25.90
2018-01-06T10:06:31.009Z,23.57
2018-01-06T10:08:59.086Z,20.07
2018-01-06T10:11:26.541Z,22.10
2018-01-06T10:13:54.006Z,24.30
2018-01-06T10:16:21.770Z,20.80
2018-01-06T10:18:49.238Z,19.37
2018-01-06T10:21:16.699Z,19.20
2018-01-06T10:23:44.761Z,21.43
2018-01-06T10:26:12.218Z,20.73
2018-01-06T10:28:39.686Z,18.63
2018-01-06T10:31:07.764Z,18.60
2018-01-06T10:33:35.209Z,15.63
2018-01-06T10:36:02.669Z,22.30
2018-01-06T10:38:30.754Z,23.17
2018-01-06T10:40:58.224Z,20.57
2018-01-06T10:43:25.682Z,18.87
2018-01-06T10:45:54.056Z,19.50
2018-01-06T10:48:21.518Z,20.13
2018-01-06T10:50:48.978Z,21.43
2018-01-06T10:53:16.741Z,21.80
2018-01-06T10:55:44.728Z,18.70
2018-01-06T10:58:12.190Z,22.40
2018-01-06T11:00:47.104Z,15.13
2018-01-06T11:03:14.566Z,16.90
2018-01-06T11:05:42.073Z,15.40
2018-01-06T11:08:09.801Z,30.13
2018-01-06T11:10:37.260Z,16.17
2018-01-06T11:13:04.725Z,15.33
2018-01-06T11:15:32.490Z,13.90
2018-01-06T11:17:59.953Z,26.00
2018-01-06T11:20:27.405Z,14.30
2018-01-06T11:22:55.173Z,16.70
2018-01-06T11:25:22.635Z,15.07
2018-01-06T11:27:50.091Z,20.77
2018-01-06T11:30:17.853Z,12.60
2018-01-06T11:32:45.305Z,25.03
2018-01-06T11:35:12.753Z,13.43
2018-01-06T11:37:40.540Z,17.67
2018-01-06T11:40:08.004Z,14.03
2018-01-06T11:42:35.457Z,13.03
2018-01-06T11:45:03.528Z,11.93
2018-01-06T11:47:31.004Z,12.60
2018-01-06T11:49:58.457Z,12.70
2018-01-06T11:52:26.172Z,15.90
2018-01-06T11:54:53.637Z,17.27
2018-01-06T11:57:21.093Z,14.73
2018-01-06T11:59:49.217Z,11.07
2018-01-06T12:02:17.057Z,12.93
2018-01-06T12:04:44.510Z,23.30
2018-01-06T12:07:12.514Z,20.77
2018-01-06T12:09:39.973Z,12.50
2018-01-06T12:12:07.427Z,11.10
2018-01-06T12:14:35.452Z,11.20
2018-01-06T12:17:02.903Z,12.97
2018-01-06T12:19:30.362Z,12.37
2018-01-06T12:21:58.233Z,18.37
2018-01-06T12:24:25.689Z,13.17
2018-01-06T12:26:53.145Z,13.10
2018-01-06T12:29:20.960Z,10.43
2018-01-06T12:31:48.417Z,17.00
2018-01-06T12:34:15.865Z,12.83
2018-01-06T12:43:27.544Z,11.83
2018-01-06T12:45:54.985Z,9.77
2018-01-06T12:48:22.433Z,13.33
2018-01-06T12:50:50.244Z,13.40
2018-01-06T12:53:17.696Z,23.90
2018-01-06T12:55:45.137Z,10.63
2018-01-06T12:58:12.905Z,13.70
2018-01-06T13:00:40.366Z,11.00
2018-01-06T13:03:08.533Z,10.87
2018-01-06T13:05:36.231Z,10.07
2018-01-06T13:08:03.690Z,12.43
2018-01-06T13:10:31.149Z,8.93
2018-01-06T13:12:58.912Z,7.40
2018-01-06T13:15:26.360Z,13.33
2018-01-06T13:17:53.808Z,9.70
2018-01-06T13:20:21.473Z,7.97
2018-01-06T13:22:48.916Z,6.10
2018-01-06T13:25:16.364Z,8.03
2018-01-06T13:27:44.301Z,7.77
2018-01-06T13:30:11.752Z,7.60
2018-01-06T13:32:39.195Z,9.03
2018-01-06T13:35:06.962Z,8.03
2018-01-06T13:37:34.411Z,8.63
2018-01-06T13:40:01.857Z,8.73
2018-01-06T13:42:29.597Z,9.47
2018-01-06T13:44:57.050Z,10.60
2018-01-06T13:47:24.501Z,8.40
2018-01-06T13:49:53.276Z,9.33
2018-01-06T13:52:20.741Z,8.37
2018-01-06T13:54:48.209Z,8.77
2018-01-06T13:57:15.961Z,8.43
2018-01-06T13:59:43.473Z,15.52
2018-01-06T14:02:10.925Z,8.97
2018-01-06T14:04:39.573Z,10.93
2018-01-06T14:07:07.033Z,12.30
2018-01-06T14:09:34.491Z,8.90
2018-01-06T14:12:02.286Z,11.70
2018-01-06T14:14:29.750Z,9.77
2018-01-06T14:16:57.198Z,7.63
2018-01-06T14:19:24.954Z,9.53
2018-01-06T14:21:52.412Z,7.33
2018-01-06T14:24:19.867Z,8.00
2018-01-06T14:26:48.241Z,9.07
2018-01-06T14:29:15.694Z,6.50
2018-01-06T14:31:43.140Z,7.27
2018-01-06T14:34:10.937Z,7.27
2018-01-06T14:36:38.395Z,6.90
2018-01-06T14:39:05.857Z,15.83
2018-01-06T14:41:33.622Z,8.43
2018-01-06T14:44:01.082Z,11.57
2018-01-06T14:46:28.542Z,12.87
2018-01-06T14:48:56.309Z,9.27
2018-01-06T14:51:23.764Z,7.50
2018-01-06T14:53:51.462Z,7.70
2018-01-06T14:56:19.926Z,9.20
2018-01-06T14:58:47.601Z,9.10
2018-01-06T15:01:15.433Z,9.10
2018-01-06T15:03:43.216Z,9.40
2018-01-06T15:06:11.682Z,9.70
2018-01-06T15:08:39.155Z,9.53
2018-01-06T15:11:07.144Z,16.43
2018-01-06T15:13:34.596Z,20.30
2018-01-06T15:16:02.060Z,11.20
2018-01-06T15:18:29.820Z,12.40
2018-01-06T15:20:57.326Z,10.27
2018-01-06T15:23:24.794Z,15.93
2018-01-06T15:25:53.133Z,13.80
2018-01-06T15:28:20.585Z,11.63
2018-01-06T15:30:48.043Z,8.83
2018-01-06T15:33:15.812Z,11.27
2018-01-06T15:35:43.264Z,13.63
2018-01-06T15:38:10.743Z,12.37
2018-01-06T15:40:38.496Z,12.70
2018-01-06T15:43:06.137Z,15.77
2018-01-06T15:45:33.601Z,22.00
2018-01-06T15:48:01.557Z,19.63
2018-01-06T15:50:29.027Z,13.17
2018-01-06T15:52:56.505Z,18.77
2018-01-06T15:55:24.142Z,13.43
2018-01-06T15:57:51.645Z,17.00
2018-01-06T16:00:19.117Z,39.13
2018-01-06T16:02:47.172Z,25.43
2018-01-06T16:05:14.653Z,17.63
2018-01-06T16:07:42.790Z,14.90
2018-01-06T16:10:10.514Z,15.23
2018-01-06T16:12:37.979Z,16.40
2018-01-06T16:15:05.443Z,18.27
2018-01-06T16:17:33.461Z,16.27
2018-01-06T16:20:00.941Z,15.90
2018-01-06T16:22:28.391Z,14.80
2018-01-06T16:24:56.459Z,14.63
2018-01-06T16:27:23.914Z,12.43
2018-01-06T16:29:51.637Z,14.00
2018-01-06T16:32:19.457Z,15.60
2018-01-06T16:34:46.937Z,25.67
2018-01-06T16:37:14.396Z,31.50
2018-01-06T16:39:42.338Z,18.20
2018-01-06T16:42:09.785Z,16.77
2018-01-06T16:44:37.240Z,15.63
2018-01-06T16:47:04.910Z,15.37
2018-01-06T16:49:32.372Z,15.87
2018-01-06T16:51:59.839Z,16.30
2018-01-06T16:54:27.834Z,18.00
2018-01-06T16:56:55.297Z,25.57
2018-01-06T16:59:22.759Z,20.23
2018-01-06T17:01:50.581Z,26.50
2018-01-06T17:04:18.036Z,23.50
2018-01-06T17:06:45.502Z,23.80
2018-01-06T17:09:13.836Z,28.90
2018-01-06T17:11:41.382Z,26.97
2018-01-06T17:14:08.839Z,35.63
2018-01-06T17:16:36.801Z,35.43
2018-01-06T17:19:04.257Z,30.80
2018-01-06T17:21:31.986Z,57.87
2018-01-06T17:23:59.811Z,35.30
2018-01-06T17:26:27.351Z,31.63
2018-01-06T17:28:54.801Z,40.93
2018-01-06T17:31:22.637Z,40.23
2018-01-06T17:33:50.194Z,51.83
2018-01-06T17:36:17.667Z,57.40
2018-01-06T17:38:46.714Z,58.13
2018-01-06T17:41:14.187Z,70.03
2018-01-06T17:43:41.652Z,60.50
2018-01-06T17:46:09.398Z,77.03
2018-01-06T17:48:36.856Z,68.33
2018-01-06T17:51:04.330Z,100.50
2018-01-06T17:53:32.094Z,83.40
2018-01-06T17:55:59.550Z,79.83
2018-01-06T17:58:27.030Z,66.90
2018-01-06T18:00:55.372Z,97.00
2018-01-06T18:03:22.838Z,74.60
2018-01-06T18:05:50.300Z,91.03
2018-01-06T18:08:18.076Z,77.73
2018-01-06T18:10:46.225Z,79.83
2018-01-06T18:13:13.707Z,76.27
2018-01-06T18:15:41.664Z,85.73
2018-01-06T18:18:09.122Z,88.20
2018-01-06T18:20:36.583Z,94.83
2018-01-06T18:23:04.369Z,91.23
2018-01-06T18:25:31.826Z,80.13
2018-01-06T18:27:59.287Z,87.90
2018-01-06T18:30:27.060Z,88.43
2018-01-06T18:32:54.521Z,97.90
2018-01-06T18:35:21.997Z,106.03
2018-01-06T18:37:49.810Z,93.53
2018-01-06T18:40:17.271Z,82.43
2018-01-06T18:42:44.732Z,101.80
2018-01-06T18:45:12.709Z,94.47
2018-01-06T18:47:40.173Z,94.87
2018-01-06T18:50:07.633Z,84.00
2018-01-06T18:52:35.429Z,85.73
2018-01-06T18:55:02.890Z,93.37
2018-01-06T18:57:30.364Z,81.33
2018-01-06T18:59:58.116Z,102.80
2018-01-06T19:02:25.577Z,78.30
2018-01-06T19:04:53.051Z,86.20
2018-01-06T19:07:20.808Z,98.83
2018-01-06T19:09:48.289Z,93.23
2018-01-06T19:12:16.420Z,75.93
2018-01-06T19:14:44.413Z,80.07
2018-01-06T19:17:11.865Z,80.40
2018-01-06T19:19:40.297Z,81.47
2018-01-06T19:22:08.083Z,77.93
2018-01-06T19:24:35.534Z,86.00
2018-01-06T19:27:03.197Z,73.23
2018-01-06T19:29:31.022Z,84.93
2018-01-06T19:31:58.483Z,75.70
2018-01-06T19:34:26.161Z,83.73
2018-01-06T19:36:54.625Z,81.53
2018-01-06T19:39:22.476Z,71.77
2018-01-06T19:41:49.934Z,75.87
2018-01-06T19:44:18.222Z,82.70
2018-01-06T19:46:46.470Z,73.00
2018-01-06T19:49:15.040Z,88.53
2018-01-06T19:51:43.367Z,78.83
2018-01-06T19:54:10.892Z,76.07
2018-01-06T19:56:38.382Z,88.90
2018-01-06T19:59:06.385Z,84.23
2018-01-06T20:01:34.676Z,75.30
2018-01-06T20:04:02.746Z,77.40
2018-01-06T20:06:30.582Z,81.47
2018-01-06T20:08:58.062Z,79.63
2018-01-06T20:11:25.997Z,89.53
2018-01-06T20:13:56.041Z,68.17
2018-01-06T20:16:24.759Z,67.40
2018-01-06T20:18:52.242Z,80.07
2018-01-06T20:21:20.288Z,79.20
2018-01-06T20:23:48.216Z,67.47
2018-01-06T20:26:16.156Z,77.33
2018-01-06T20:28:44.545Z,66.30
2018-01-06T20:31:12.001Z,96.77
2018-01-06T20:33:39.467Z,67.03
2018-01-06T20:36:08.094Z,77.07
2018-01-06T20:38:35.604Z,72.13
2018-01-06T20:41:03.341Z,75.53
2018-01-06T20:43:31.104Z,79.77
2018-01-06T20:45:58.564Z,60.00
2018-01-06T20:48:26.106Z,71.87
2018-01-06T20:50:54.100Z,65.33
2018-01-06T20:53:21.577Z,79.43
2018-01-06T20:55:49.033Z,83.73
2018-01-06T20:58:17.687Z,79.30
2018-01-06T21:00:45.846Z,84.77
2018-01-06T21:03:13.308Z,59.23
2018-01-06T21:05:41.616Z,70.40
2018-01-06T21:08:09.161Z,67.83
2018-01-06T21:10:37.500Z,65.40
2018-01-06T21:13:05.222Z,69.93
2018-01-06T21:15:33.695Z,70.63
2018-01-06T21:18:01.149Z,67.07
2018-01-06T21:20:29.150Z,74.97
2018-01-06T21:22:56.604Z,78.43
2018-01-06T21:25:25.022Z,65.77
2018-01-06T21:27:53.082Z,69.20
2018-01-06T21:30:20.545Z,67.03
2018-01-06T21:32:48.004Z,75.87
2018-01-06T21:35:16.041Z,72.33
2018-01-06T21:37:43.590Z,80.57
2018-01-06T21:40:11.071Z,72.17
2018-01-06T21:42:39.090Z,64.47
2018-01-06T21:45:06.594Z,72.47
2018-01-06T21:47:34.114Z,63.10
2018-01-06T21:50:01.894Z,56.80
2018-01-06T21:52:29.353Z,56.53
2018-01-06T21:54:56.822Z,71.63
2018-01-06T21:57:24.426Z,67.53
2018-01-06T21:59:51.916Z,61.03
2018-01-06T22:02:19.409Z,55.93
2018-01-06T22:04:47.401Z,70.60
2018-01-06T22:07:14.944Z,57.23
2018-01-06T22:09:42.396Z,63.13
2018-01-06T22:12:10.713Z,58.70
2018-01-06T22:14:38.187Z,61.00
2018-01-06T22:17:06.025Z,65.43
2018-01-06T22:19:33.904Z,64.77
2018-01-06T22:22:01.908Z,67.90
2018-01-06T22:24:29.937Z,65.23
2018-01-06T22:26:57.933Z,68.97
2018-01-06T22:29:25.721Z,57.10
2018-01-06T22:31:53.725Z,79.47
2018-01-06T22:34:21.549Z,60.03
2018-01-06T22:36:49.097Z,55.17
2018-01-06T22:39:16.644Z,49.13
2018-01-06T22:41:44.838Z,53.13
2018-01-06T22:44:12.290Z,63.30
2018-01-06T22:46:39.754Z,52.57
2018-01-06T22:49:08.149Z,62.80
2018-01-06T22:51:35.822Z,69.07
2018-01-06T22:54:03.989Z,52.03
2018-01-06T22:56:32.001Z,67.70
2018-01-06T22:58:59.720Z,67.27
2018-01-06T23:01:27.205Z,63.87
2018-01-06T23:03:55.377Z,76.00
2018-01-06T23:06:23.119Z,81.50
2018-01-06T23:08:50.765Z,95.43
2018-01-06T23:11:19.321Z,76.07
2018-01-06T23:13:47.094Z,75.40
2018-01-06T23:16:14.576Z,77.10
2018-01-06T23:18:43.069Z,74.60
2018-01-06T23:21:10.736Z,77.77
2018-01-06T23:23:38.189Z,72.63
2018-01-06T23:26:06.190Z,83.23
2018-01-06T23:28:33.654Z,81.60
2018-01-06T23:31:01.125Z,74.67
2018-01-06T23:33:28.885Z,84.60
2018-01-06T23:35:56.345Z,63.50
2018-01-06T23:38:23.805Z,65.70
2018-01-06T23:40:51.569Z,63.53
2018-01-06T23:43:19.031Z,62.37
2018-01-06T23:45:46.499Z,64.73
2018-01-06T23:48:14.237Z,59.07
2018-01-06T23:50:41.700Z,51.80
2018-01-06T23:53:09.161Z,77.50
2018-01-06T23:55:37.246Z,52.03
2018-01-06T23:58:04.712Z,48.63
